Nearby METAR Reports

 

KORH - Worcester, Massachusetts, USA
Distance from station: NW 4mi, 7km
Updated: Sat, 20-Jan-2018 4:54pm EST
Clear
Clear
 Wind from W
Wind: W 17 mph , 28 km/h, Gust: 25 mph , 41 km/h
Temperature: 41°F , 5°C
Wind Chill: 33°F , 1°C
Dew Point: 25°F , -4°C
Humidity: 53%
Barometer: 29.77 inHg , 1008.1 hPa
Clouds: Clear
Visibility: 10 miles , 16 km
2018/01/20 21:54 KORH 202154Z 26015G22KT 10SM CLR 05/M04 A2977 RMK AO2 SLP091 T00501044
KBOS - Boston, Massachusetts, USA
Distance from station: ENE 42mi, 68km
Updated: Sat, 20-Jan-2018 4:54pm EST
Mostly cloudy
Mostly cloudy
 Wind from WSW
Wind: WSW 14 mph , 22 km/h, Gust: 23 mph , 37 km/h
Temperature: 46°F , 8°C
Wind Chill: 40°F , 4°C
Dew Point: 27°F , -3°C
Humidity: 46%
Barometer: 29.77 inHg , 1008.1 hPa
Clouds: Mostly cloudy
Visibility: 10 miles , 16 km
Cloud details: Few Clouds 17000 ft
Partly cloudy 23000 ft
Mostly cloudy 30000 ft
2018/01/20 21:54 KBOS 202154Z 24012G20KT 10SM FEW170 SCT230 BKN300 08/M03 A2977 RMK AO2 SLP080 T00781028
 
KCQX - Chatham, Massachusetts, USA
Distance from station: SE 102mi, 164km
Updated: Sat, 20-Jan-2018 4:52pm EST
Clear
Clear
 Wind from WSW
Wind: WSW 9 mph , 15 km/h, Gust: 18 mph , 30 km/h
Temperature: 45°F , 7°C
Wind Chill: 40°F , 4°C
Dew Point: 28°F , -2°C
Humidity: 53%
Barometer: 29.81 inHg , 1009.5 hPa
Clouds: Clear
Visibility: 10 miles , 16 km
2018/01/20 21:52 KCQX 202152Z AUTO 25008G16KT 10SM CLR 07/M02 A2981 RMK AO2 SLP096 T00721017 TSNO
KMVY - Marthas Vineyard, Massachusetts, USA
Distance from station: SE 84mi, 135km
Updated: Sat, 20-Jan-2018 4:53pm EST
Clear
Clear
 Wind from WSW
Wind: WSW 10 mph , 17 km/h, Gust: 21 mph , 33 km/h
Temperature: 45°F , 7°C
Wind Chill: 40°F , 4°C
Dew Point: 30°F , -1°C
Humidity: 57%
Barometer: 29.83 inHg , 1010.2 hPa
Clouds: Clear
Visibility: 10 miles , 16 km
2018/01/20 21:53 KMVY 202153Z 25009G18KT 10SM CLR 07/M01 A2983 RMK AO2 SLPNO T00721011 $
 
KPVC - Provincetown, Massachusetts, USA
Distance from station: NNW 85mi, 136km
Updated: Sat, 20-Jan-2018 4:56pm EST
Clear
Clear
 Wind from WSW
Wind: WSW 10 mph , 17 km/h
Temperature: 41°F , 5°C
Wind Chill: 35°F , 2°C
Dew Point: 30°F , -1°C
Humidity: 66%
Clouds: Clear
Visibility: 10 miles , 16 km
2018/01/20 21:56 KPVC 202156Z AUTO 24009KT 10SM CLR 05/M01 RMK AO2 SLPNO T00501011 $
KAQW - Savoy, Massachusetts, USA
Distance from station: NNW 66mi, 106km
Updated: Sat, 20-Jan-2018 4:52pm EST
Clear
Clear
 Wind from WNW
Wind: WNW 3 mph , 6 km/h
Temperature: 43°F , 6°C
Dew Point: 27°F , -3°C
Humidity: 53%
Barometer: 29.85 inHg , 1010.8 hPa
Clouds: Clear
Visibility: 10 miles , 16 km
2018/01/20 21:52 KAQW 202152Z AUTO 29003KT 10SM CLR 06/M03 A2985 RMK AO2 SLP116 T00561033
 
KIZG - Fryeburg, Maine, USA
Distance from station: NNE 133mi, 214km
Updated: Sat, 20-Jan-2018 4:54pm EST
Clear
Clear
 Wind from WNW
Wind: WNW 12 mph , 19 km/h, Gust: 18 mph , 30 km/h
Temperature: 43°F , 6°C
Wind Chill: 37°F , 3°C
Dew Point: 28°F , -2°C
Humidity: 57%
Barometer: 29.70 inHg , 1005.8 hPa
Clouds: Clear
Visibility: 10 miles , 16 km
2018/01/20 21:54 KIZG 202154Z AUTO 30010G16KT 10SM CLR 06/M02 A2970 RMK AO2 SLP062 T00561022
KMWN - Mt Washington, New Hampshire, USA
Distance from station: NNE 146mi, 234km
Updated: Sat, 20-Jan-2018 4:52pm EST
Freezing fog, Overcast
Freezing fog, Overcast
 Wind from WNW
Wind: WNW 83 mph , 133 km/h, Gust: 99 mph , 159 km/h
Temperature: 16°F , -9°C
Wind Chill: -13°F , -25°C
Dew Point: 16°F , -9°C
Humidity: 100%
Summary: Freezing Fog
Clouds: Overcast
Visibility: 0 miles , 0 km
Cloud details: Overcast 0 ft
2018/01/20 21:52 KMWN 202152Z 29072G86KT 0SM FZFG VV000 M09/M09 RMK PK WND 29089/37 VRY LGT ICG
 
KBML - Berlin, New Hampshire, USA
Distance from station: NNE 160mi, 257km
Updated: Sat, 20-Jan-2018 4:52pm EST
Overcast
Overcast
 Wind from WNW
Wind: WNW 8 mph , 13 km/h
Temperature: 39°F , 4°C
Wind Chill: 33°F , 1°C
Dew Point: 27°F , -3°C
Humidity: 61%
Barometer: 29.69 inHg , 1005.4 hPa
Clouds: Overcast
Visibility: 10 miles , 16 km
Cloud details: Overcast 3400 ft
2018/01/20 21:52 KBML 202152Z AUTO 29007KT 250V320 10SM OVC034 04/M03 A2969 RMK AO2 SLP070 T00391028